createdAt,value
2023-01-18T08:09:22.533Z,20.20
2023-01-18T08:11:49.414Z,19.60
2023-01-18T08:14:16.390Z,19.90
2023-01-18T08:16:43.373Z,18.70
2023-01-18T08:19:10.429Z,16.70
2023-01-18T08:21:37.317Z,17.60
2023-01-18T08:24:04.432Z,15.10
2023-01-18T08:26:31.261Z,19.00
2023-01-18T08:28:58.099Z,18.80
2023-01-18T08:31:24.968Z,19.90
2023-01-18T08:33:53.005Z,18.30
2023-01-18T08:36:24.402Z,17.50
2023-01-18T08:38:52.814Z,14.90
2023-01-18T08:41:20.065Z,13.70
2023-01-18T08:43:51.142Z,13.10
2023-01-18T08:46:18.436Z,13.50
2023-01-18T08:48:48.836Z,11.70
2023-01-18T08:51:18.250Z,11.50
2023-01-18T08:53:46.525Z,10.90
2023-01-18T08:56:13.704Z,10.50
2023-01-18T08:58:40.550Z,10.10
2023-01-18T09:01:08.626Z,10.50
2023-01-18T09:03:35.646Z,10.90
2023-01-18T09:06:03.735Z,10.50
2023-01-18T09:08:31.782Z,10.30
2023-01-18T09:11:03.670Z,10.50
2023-01-18T09:13:31.500Z,8.90
2023-01-18T09:16:06.054Z,9.00
2023-01-18T09:18:33.557Z,10.00
2023-01-18T09:21:05.934Z,8.60
2023-01-18T09:23:32.742Z,8.50
2023-01-18T09:26:04.625Z,7.40
2023-01-18T09:28:32.118Z,8.40
2023-01-18T09:31:02.941Z,7.70
2023-01-18T09:33:37.544Z,8.10
2023-01-18T09:36:10.094Z,8.10
2023-01-18T09:46:32.927Z,11.90
2023-01-18T09:49:00.946Z,10.50
2023-01-18T09:51:31.476Z,10.50
2023-01-18T09:54:45.163Z,11.20
2023-01-18T10:04:50.119Z,8.40
2023-01-18T10:07:17.051Z,8.60
2023-01-18T10:09:54.488Z,8.00
2023-01-18T10:12:39.231Z,6.80
2023-01-18T10:15:10.782Z,7.30
2023-01-18T10:17:41.793Z,7.20
2023-01-18T10:20:18.851Z,7.30
2023-01-18T10:22:51.233Z,6.40
2023-01-18T10:25:44.387Z,7.30
2023-01-18T10:28:26.387Z,6.60
2023-01-18T10:31:03.978Z,6.70
2023-01-18T10:33:35.249Z,8.00
2023-01-18T10:36:05.044Z,7.80
2023-01-18T10:38:31.856Z,8.70
2023-01-18T10:41:00.326Z,9.60
2023-01-18T10:43:28.860Z,7.40
2023-01-18T10:45:56.010Z,8.80
2023-01-18T10:48:26.395Z,6.80
2023-01-18T10:50:55.656Z,6.80
2023-01-18T10:53:36.587Z,6.70
2023-01-18T10:56:13.119Z,7.60
2023-01-18T10:58:46.076Z,8.60
2023-01-18T11:01:15.274Z,9.30
2023-01-18T11:04:08.202Z,8.60
2023-01-18T11:06:50.989Z,6.50
2023-01-18T11:09:45.622Z,6.30
2023-01-18T11:12:42.150Z,9.10
2023-01-18T11:15:15.187Z,7.00
2023-01-18T11:17:56.328Z,7.00
2023-01-18T11:20:35.781Z,6.90
2023-01-18T11:23:06.442Z,7.00
2023-01-18T11:25:41.764Z,6.00
2023-01-18T11:28:54.731Z,6.90
2023-01-18T11:31:23.496Z,9.90
2023-01-18T11:34:00.356Z,10.50
2023-01-18T11:36:38.580Z,10.90
2023-01-18T11:39:36.817Z,8.00
2023-01-18T11:42:14.161Z,6.80
2023-01-18T11:45:08.995Z,7.20
2023-01-18T11:47:48.435Z,7.70
2023-01-18T11:50:28.596Z,7.70
2023-01-18T11:53:10.008Z,9.00
2023-01-18T11:55:40.833Z,8.30
2023-01-18T11:58:28.830Z,7.00
2023-01-18T12:01:04.710Z,7.40
2023-01-18T12:03:56.463Z,8.40
2023-01-18T12:06:33.667Z,9.60
2023-01-18T12:09:15.695Z,10.20
2023-01-18T12:11:46.813Z,11.90
2023-01-18T12:14:38.743Z,12.90
2023-01-18T12:17:20.576Z,14.80
2023-01-18T12:19:56.702Z,9.50
2023-01-18T12:23:12.361Z,6.90
2023-01-18T12:25:42.464Z,8.50
2023-01-18T12:28:33.153Z,7.20
2023-01-18T12:31:09.470Z,6.10
2023-01-18T12:33:44.264Z,7.30
2023-01-18T12:36:35.974Z,9.50
2023-01-18T12:39:12.185Z,7.30
2023-01-18T12:41:49.353Z,9.10
2023-01-18T12:44:49.780Z,6.20
2023-01-18T12:47:47.891Z,6.90
2023-01-18T12:50:31.046Z,7.50
2023-01-18T12:53:00.872Z,7.90
2023-01-18T12:55:28.501Z,8.30
2023-01-18T12:57:59.267Z,8.60
2023-01-18T13:00:32.230Z,7.80
2023-01-18T13:02:59.079Z,7.70
2023-01-18T13:05:44.051Z,6.60
2023-01-18T13:08:15.683Z,6.60
2023-01-18T13:10:42.519Z,6.70
2023-01-18T13:13:13.551Z,7.50
2023-01-18T13:15:52.989Z,7.40
2023-01-18T13:18:21.968Z,9.50
2023-01-18T13:21:00.760Z,6.30
2023-01-18T13:23:53.704Z,7.50
2023-01-18T13:26:34.173Z,8.40
2023-01-18T13:29:10.640Z,7.30
2023-01-18T13:31:37.901Z,5.50
2023-01-18T13:34:04.837Z,5.80
2023-01-18T13:36:45.419Z,5.80
2023-01-18T13:39:22.631Z,5.70
2023-01-18T13:42:11.036Z,6.70
2023-01-18T13:44:42.944Z,5.70
2023-01-18T13:47:47.323Z,5.60
2023-01-18T13:53:14.287Z,6.50
2023-01-18T13:56:00.285Z,5.60
2023-01-18T13:58:31.427Z,5.10
2023-01-18T14:01:00.160Z,5.30
2023-01-18T14:03:39.625Z,6.40
2023-01-18T14:06:10.363Z,6.30
2023-01-18T14:08:40.064Z,6.60
2023-01-18T14:11:09.250Z,5.60
2023-01-18T14:13:45.440Z,5.70
2023-01-18T14:16:16.728Z,6.60
2023-01-18T14:19:17.616Z,7.10
2023-01-18T14:21:47.701Z,6.70
2023-01-18T14:24:39.251Z,5.50
2023-01-18T14:27:07.070Z,5.70
2023-01-18T14:29:51.337Z,5.70
2023-01-18T14:32:23.223Z,5.00
2023-01-18T14:35:34.924Z,7.10
2023-01-18T14:38:17.356Z,5.50
2023-01-18T14:40:47.212Z,6.30
2023-01-18T14:43:16.640Z,6.90
2023-01-18T14:45:52.160Z,6.50
2023-01-18T14:48:19.528Z,6.60
2023-01-18T14:50:47.387Z,6.50
2023-01-18T14:53:24.059Z,6.80
2023-01-18T14:56:18.512Z,6.30
2023-01-18T14:59:22.734Z,4.70
2023-01-18T15:01:58.189Z,5.40
2023-01-18T15:04:26.925Z,5.50
2023-01-18T15:07:08.088Z,6.90
2023-01-18T15:09:38.993Z,7.50
2023-01-18T15:12:07.806Z,8.80
2023-01-18T15:14:40.559Z,8.50
2023-01-18T15:17:09.008Z,7.00
2023-01-18T15:19:39.579Z,6.00
2023-01-18T15:22:08.515Z,7.00
2023-01-18T15:24:40.629Z,7.60
2023-01-18T15:27:12.355Z,9.00
2023-01-18T15:29:39.221Z,8.50
2023-01-18T15:32:22.259Z,6.50
2023-01-18T15:34:50.365Z,7.00
2023-01-18T15:37:33.660Z,5.70
2023-01-18T15:40:06.072Z,5.80
2023-01-18T15:42:42.796Z,5.70
2023-01-18T15:45:30.832Z,5.70
2023-01-18T15:48:00.594Z,5.60
2023-01-18T15:50:38.980Z,5.10
2023-01-18T15:53:06.413Z,5.00
2023-01-18T15:55:53.382Z,4.80
2023-01-18T15:58:29.964Z,5.30
2023-01-18T16:01:01.619Z,4.80
2023-01-18T16:03:39.049Z,5.80
2023-01-18T16:06:10.510Z,5.00
2023-01-18T16:09:11.839Z,5.70
2023-01-18T16:11:52.144Z,6.00
2023-01-18T16:14:28.474Z,5.90
2023-01-18T16:16:56.142Z,5.30
2023-01-18T16:19:34.831Z,5.10
2023-01-18T16:22:06.031Z,4.90
2023-01-18T16:24:35.488Z,5.10
2023-01-18T16:27:11.449Z,5.20
2023-01-18T16:29:48.320Z,4.80
2023-01-18T16:32:36.709Z,5.10
2023-01-18T16:35:14.335Z,5.60
2023-01-18T16:37:42.148Z,4.60
2023-01-18T16:40:09.546Z,5.00
2023-01-18T16:43:02.166Z,5.60
2023-01-18T16:45:29.788Z,5.30
2023-01-18T16:47:56.911Z,5.30
2023-01-18T16:50:24.127Z,5.60
2023-01-18T16:52:51.364Z,5.80
2023-01-18T16:55:18.433Z,5.30
2023-01-18T16:57:45.391Z,5.80
2023-01-18T17:00:22.967Z,5.60
2023-01-18T17:02:50.059Z,5.50
2023-01-18T17:05:17.153Z,6.30
2023-01-18T17:07:44.203Z,5.90
2023-01-18T17:10:21.529Z,5.80
2023-01-18T17:12:48.430Z,5.40
2023-01-18T17:15:16.125Z,5.20
2023-01-18T17:17:43.808Z,5.70
2023-01-18T17:20:17.953Z,5.60
2023-01-18T17:22:44.947Z,6.10
2023-01-18T17:25:11.712Z,5.30
2023-01-18T17:27:38.553Z,4.70
2023-01-18T17:30:06.369Z,5.40
2023-01-18T17:32:33.173Z,4.80
2023-01-18T17:35:00.096Z,4.90
2023-01-18T17:37:27.152Z,4.50
2023-01-18T17:40:10.871Z,5.20
2023-01-18T17:42:40.856Z,4.90
2023-01-18T17:45:14.543Z,5.10
2023-01-18T17:47:42.769Z,5.00
2023-01-18T17:50:11.680Z,4.30
2023-01-18T17:52:39.533Z,5.10
2023-01-18T17:55:07.573Z,4.40
2023-01-18T17:57:34.924Z,5.10
2023-01-18T18:00:02.349Z,5.90
2023-01-18T18:02:34.777Z,5.30
2023-01-18T18:05:01.683Z,5.10
2023-01-18T18:07:28.481Z,5.20
2023-01-18T18:10:00.949Z,5.10
2023-01-18T18:12:29.601Z,4.50
2023-01-18T18:14:56.846Z,5.30
2023-01-18T18:17:24.759Z,4.90
2023-01-18T18:19:51.541Z,5.50
2023-01-18T18:22:20.038Z,5.00
2023-01-18T18:24:47.707Z,5.60
2023-01-18T18:27:14.851Z,5.10
2023-01-18T18:29:41.735Z,26.10
2023-01-18T18:32:08.875Z,6.80
2023-01-18T18:34:36.103Z,7.10
2023-01-18T18:37:05.074Z,6.40
2023-01-18T18:39:33.084Z,5.30
2023-01-18T18:42:00.546Z,6.10
2023-01-18T18:44:27.474Z,9.70
2023-01-18T18:46:54.508Z,8.60
2023-01-18T18:49:21.664Z,8.80
2023-01-18T18:51:48.506Z,7.40
2023-01-18T18:54:15.706Z,7.50
2023-01-18T18:56:42.925Z,7.90
2023-01-18T18:59:09.849Z,6.30
2023-01-18T19:01:36.858Z,5.10
2023-01-18T19:04:05.634Z,5.60
2023-01-18T19:06:32.740Z,5.90
2023-01-18T19:08:59.571Z,5.70
2023-01-18T19:11:26.525Z,5.60
2023-01-18T19:13:54.320Z,6.10
2023-01-18T19:16:21.134Z,5.70
2023-01-18T19:18:48.075Z,5.50
2023-01-18T19:21:15.339Z,5.70
2023-01-18T19:23:42.375Z,5.00
2023-01-18T19:26:09.434Z,4.70
2023-01-18T19:28:36.582Z,5.00
2023-01-18T19:31:04.555Z,5.40
2023-01-18T19:33:31.335Z,5.30
2023-01-18T19:35:58.545Z,4.90
2023-01-18T19:38:25.785Z,4.80
2023-01-18T19:40:53.044Z,5.50
2023-01-18T19:43:19.961Z,4.90
2023-01-18T19:45:46.847Z,4.90
2023-01-18T19:48:13.669Z,5.00
2023-01-18T19:50:40.724Z,4.70
2023-01-18T19:53:07.692Z,5.60
2023-01-18T19:55:36.661Z,8.50
2023-01-18T19:58:03.771Z,22.80
2023-01-18T20:00:30.886Z,6.40
2023-01-18T20:02:58.531Z,6.60
2023-01-18T20:05:26.045Z,5.50
2023-01-18T20:07:53.534Z,6.80
2023-01-18T20:10:20.789Z,6.10
2023-01-18T20:12:48.656Z,6.20
2023-01-18T20:15:17.346Z,5.70
2023-01-18T20:17:44.190Z,6.00
2023-01-18T20:20:16.123Z,5.30
2023-01-18T20:22:46.377Z,5.50
2023-01-18T20:25:13.445Z,5.50
2023-01-18T20:27:40.669Z,5.80
2023-01-18T20:30:09.189Z,5.40
2023-01-18T20:32:36.125Z,5.30
2023-01-18T20:35:02.983Z,6.10
2023-01-18T20:37:29.893Z,5.60
2023-01-18T20:39:56.784Z,5.80
2023-01-18T20:42:23.639Z,6.20
2023-01-18T20:44:53.718Z,5.20
2023-01-18T20:47:20.629Z,5.50
2023-01-18T20:49:47.935Z,4.90
2023-01-18T20:52:14.799Z,5.70
2023-01-18T20:54:41.793Z,5.50
2023-01-18T20:57:09.526Z,4.90
2023-01-18T20:59:36.418Z,5.40
2023-01-18T21:02:03.791Z,5.30
2023-01-18T21:04:31.181Z,5.80
2023-01-18T21:06:58.445Z,6.10
2023-01-18T21:09:25.771Z,5.10
2023-01-18T21:11:52.684Z,5.70
2023-01-18T21:14:19.522Z,6.50
2023-01-18T21:16:46.670Z,5.80
2023-01-18T21:19:13.750Z,6.40
2023-01-18T21:21:40.892Z,4.90
2023-01-18T21:24:07.806Z,6.20
2023-01-18T21:26:36.192Z,6.30
2023-01-18T21:29:04.071Z,5.40
2023-01-18T21:31:30.963Z,6.00
2023-01-18T21:33:57.928Z,5.10
2023-01-18T21:36:25.125Z,5.30
2023-01-18T21:38:52.272Z,5.50
2023-01-18T21:41:37.943Z,5.90
2023-01-18T21:44:23.491Z,5.30
2023-01-18T21:46:51.969Z,5.80
2023-01-18T21:50:16.651Z,5.40
2023-01-18T21:52:43.751Z,6.20
2023-01-18T21:55:10.672Z,5.90
2023-01-18T21:57:38.987Z,6.30
2023-01-18T22:00:06.711Z,6.20
2023-01-18T22:02:36.679Z,5.60
2023-01-18T22:05:04.116Z,5.40
2023-01-18T22:07:32.894Z,6.20
2023-01-18T22:10:05.046Z,6.00
2023-01-18T22:12:35.476Z,5.70
2023-01-18T22:15:04.439Z,6.40
2023-01-18T22:17:31.616Z,6.40
2023-01-18T22:19:58.985Z,6.40
2023-01-18T22:22:26.348Z,6.70
2023-01-18T22:24:55.326Z,6.50
2023-01-18T22:27:22.112Z,6.20
2023-01-18T22:29:51.129Z,6.70
2023-01-18T22:32:18.099Z,7.40
2023-01-18T22:34:47.622Z,6.60
2023-01-18T22:37:15.696Z,6.50
2023-01-18T22:39:44.868Z,6.70
2023-01-18T22:42:11.903Z,6.50
2023-01-18T22:44:38.715Z,7.40
2023-01-18T22:47:05.553Z,6.50
2023-01-18T22:49:32.434Z,7.70
2023-01-18T22:51:59.484Z,7.80
2023-01-18T22:54:28.989Z,7.20
2023-01-18T22:56:55.768Z,6.80
2023-01-18T22:59:22.669Z,6.40
2023-01-18T23:01:50.571Z,7.50
2023-01-18T23:04:21.783Z,7.70
2023-01-18T23:06:50.788Z,6.40
2023-01-18T23:09:18.887Z,6.40
2023-01-18T23:11:47.613Z,6.30
2023-01-18T23:14:33.804Z,6.50
2023-01-18T23:17:19.474Z,5.70
2023-01-18T23:19:46.739Z,5.60
2023-01-18T23:22:14.228Z,6.00
2023-01-18T23:24:41.034Z,6.40
2023-01-18T23:27:09.852Z,6.00
2023-01-18T23:29:39.291Z,6.10
2023-01-18T23:32:07.519Z,6.40
2023-01-18T23:42:32.597Z,6.50
2023-01-18T23:45:18.158Z,8.00
2023-01-18T23:48:04.239Z,7.70
2023-01-18T23:50:50.416Z,8.80
2023-01-18T23:53:36.303Z,7.10
2023-01-18T23:56:03.297Z,6.90
2023-01-18T23:58:30.211Z,6.90
